sensor_id;sensor_type;location;lat;lon;timestamp;pressure;altitude;pressure_sealevel;temperature;humidity
23229;BME280;11783;50.350;6.576;2023-03-25T00:01:09;95156.69;;;5.73;100.00
23229;BME280;11783;50.350;6.576;2023-03-25T00:03:38;95152.09;;;5.81;100.00
23229;BME280;11783;50.350;6.576;2023-03-25T00:06:09;95172.94;;;5.82;100.00
23229;BME280;11783;50.350;6.576;2023-03-25T00:08:35;95149.59;;;5.74;100.00
23229;BME280;11783;50.350;6.576;2023-03-25T00:11:01;95148.34;;;5.76;100.00
23229;BME280;11783;50.350;6.576;2023-03-25T00:13:29;95152.63;;;5.66;100.00
23229;BME280;11783;50.350;6.576;2023-03-25T00:15:56;95137.19;;;5.58;100.00
23229;BME280;11783;50.350;6.576;2023-03-25T00:18:27;95149.03;;;5.72;100.00
23229;BME280;11783;50.350;6.576;2023-03-25T00:20:59;95158.78;;;5.71;100.00
23229;BME280;11783;50.350;6.576;2023-03-25T00:23:26;95146.00;;;5.80;100.00
23229;BME280;11783;50.350;6.576;2023-03-25T00:25:51;95135.78;;;5.84;100.00
23229;BME280;11783;50.350;6.576;2023-03-25T00:28:17;95136.09;;;5.87;100.00
23229;BME280;11783;50.350;6.576;2023-03-25T00:30:44;95145.16;;;5.91;100.00
23229;BME280;11783;50.350;6.576;2023-03-25T00:33:10;95146.75;;;5.92;100.00
23229;BME280;11783;50.350;6.576;2023-03-25T00:35:40;95152.66;;;5.99;100.00
23229;BME280;11783;50.350;6.576;2023-03-25T00:38:09;95140.78;;;5.97;100.00
23229;BME280;11783;50.350;6.576;2023-03-25T00:40:35;95141.00;;;5.95;100.00
23229;BME280;11783;50.350;6.576;2023-03-25T00:43:02;95144.00;;;5.87;100.00
23229;BME280;11783;50.350;6.576;2023-03-25T00:45:28;95152.34;;;5.96;100.00
23229;BME280;11783;50.350;6.576;2023-03-25T00:47:54;95159.38;;;6.07;100.00
23229;BME280;11783;50.350;6.576;2023-03-25T00:50:19;95154.34;;;6.05;100.00
23229;BME280;11783;50.350;6.576;2023-03-25T00:52:46;95144.22;;;5.97;100.00
23229;BME280;11783;50.350;6.576;2023-03-25T00:55:11;95148.25;;;6.05;100.00
23229;BME280;11783;50.350;6.576;2023-03-25T00:57:37;95148.75;;;6.02;100.00
23229;BME280;11783;50.350;6.576;2023-03-25T01:00:04;95144.00;;;5.87;100.00
23229;BME280;11783;50.350;6.576;2023-03-25T01:02:31;95135.56;;;6.02;100.00
23229;BME280;11783;50.350;6.576;2023-03-25T01:04:58;95144.28;;;6.02;100.00
23229;BME280;11783;50.350;6.576;2023-03-25T01:07:24;95129.00;;;6.04;100.00
23229;BME280;11783;50.350;6.576;2023-03-25T01:09:49;95141.84;;;5.84;100.00
23229;BME280;11783;50.350;6.576;2023-03-25T01:12:16;95128.53;;;5.91;100.00
23229;BME280;11783;50.350;6.576;2023-03-25T01:14:43;95135.84;;;5.89;100.00
23229;BME280;11783;50.350;6.576;2023-03-25T01:17:08;95130.66;;;5.77;100.00
23229;BME280;11783;50.350;6.576;2023-03-25T01:19:34;95118.44;;;5.88;100.00
23229;BME280;11783;50.350;6.576;2023-03-25T01:21:59;95114.06;;;5.93;100.00
23229;BME280;11783;50.350;6.576;2023-03-25T01:24:26;95121.72;;;5.95;100.00
23229;BME280;11783;50.350;6.576;2023-03-25T01:26:51;95138.59;;;5.94;100.00
23229;BME280;11783;50.350;6.576;2023-03-25T01:29:19;95145.00;;;5.98;100.00
23229;BME280;11783;50.350;6.576;2023-03-25T01:31:45;95133.97;;;6.01;100.00
23229;BME280;11783;50.350;6.576;2023-03-25T01:34:11;95122.53;;;5.78;100.00
23229;BME280;11783;50.350;6.576;2023-03-25T01:36:36;95134.41;;;5.81;100.00
23229;BME280;11783;50.350;6.576;2023-03-25T01:39:05;95140.06;;;5.73;100.00
23229;BME280;11783;50.350;6.576;2023-03-25T01:41:33;95133.38;;;5.82;100.00
23229;BME280;11783;50.350;6.576;2023-03-25T01:46:29;95121.47;;;5.80;100.00
23229;BME280;11783;50.350;6.576;2023-03-25T01:48:55;95122.19;;;5.75;100.00
23229;BME280;11783;50.350;6.576;2023-03-25T01:51:26;95132.34;;;5.83;100.00
23229;BME280;11783;50.350;6.576;2023-03-25T01:53:53;95117.06;;;5.85;100.00
23229;BME280;11783;50.350;6.576;2023-03-25T01:56:25;95126.03;;;5.84;100.00
23229;BME280;11783;50.350;6.576;2023-03-25T01:58:51;95130.75;;;5.82;100.00
23229;BME280;11783;50.350;6.576;2023-03-25T02:01:18;95123.91;;;5.98;100.00
23229;BME280;11783;50.350;6.576;2023-03-25T02:03:47;95137.47;;;5.90;100.00
23229;BME280;11783;50.350;6.576;2023-03-25T02:06:31;95127.06;;;5.83;100.00
23229;BME280;11783;50.350;6.576;2023-03-25T02:08:58;95129.47;;;5.85;100.00
23229;BME280;11783;50.350;6.576;2023-03-25T02:11:26;95121.63;;;5.73;100.00
23229;BME280;11783;50.350;6.576;2023-03-25T02:13:59;95128.50;;;5.74;100.00
23229;BME280;11783;50.350;6.576;2023-03-25T02:16:36;95120.25;;;5.70;100.00
23229;BME280;11783;50.350;6.576;2023-03-25T02:30:58;95126.72;;;5.46;100.00
23229;BME280;11783;50.350;6.576;2023-03-25T02:33:41;95123.13;;;5.52;100.00
23229;BME280;11783;50.350;6.576;2023-03-25T02:39:08;95108.59;;;5.50;100.00
23229;BME280;11783;50.350;6.576;2023-03-25T02:44:39;95119.06;;;5.44;100.00
23229;BME280;11783;50.350;6.576;2023-03-25T02:47:13;95106.28;;;5.53;100.00
23229;BME280;11783;50.350;6.576;2023-03-25T02:49:43;95123.38;;;5.51;100.00
23229;BME280;11783;50.350;6.576;2023-03-25T02:52:14;95118.91;;;5.51;100.00
23229;BME280;11783;50.350;6.576;2023-03-25T02:54:42;95129.50;;;5.39;100.00
23229;BME280;11783;50.350;6.576;2023-03-25T02:57:11;95126.63;;;5.41;100.00
23229;BME280;11783;50.350;6.576;2023-03-25T02:59:37;95118.25;;;5.44;100.00
23229;BME280;11783;50.350;6.576;2023-03-25T03:02:07;95153.22;;;5.39;100.00
23229;BME280;11783;50.350;6.576;2023-03-25T03:04:50;95145.84;;;5.25;100.00
23229;BME280;11783;50.350;6.576;2023-03-25T03:07:31;95142.19;;;5.26;100.00
23229;BME280;11783;50.350;6.576;2023-03-25T03:18:40;95157.63;;;4.94;100.00
23229;BME280;11783;50.350;6.576;2023-03-25T03:21:17;95132.19;;;4.99;100.00
23229;BME280;11783;50.350;6.576;2023-03-25T03:23:59;95122.44;;;5.00;100.00
23229;BME280;11783;50.350;6.576;2023-03-25T03:26:46;95134.13;;;5.04;100.00
23229;BME280;11783;50.350;6.576;2023-03-25T03:29:38;95139.00;;;5.12;100.00
23229;BME280;11783;50.350;6.576;2023-03-25T03:35:07;95127.88;;;5.22;100.00
23229;BME280;11783;50.350;6.576;2023-03-25T03:37:40;95123.84;;;5.19;100.00
23229;BME280;11783;50.350;6.576;2023-03-25T03:40:27;95131.03;;;5.07;100.00
23229;BME280;11783;50.350;6.576;2023-03-25T03:43:02;95136.00;;;4.92;100.00
23229;BME280;11783;50.350;6.576;2023-03-25T03:45:36;95136.47;;;4.89;100.00
23229;BME280;11783;50.350;6.576;2023-03-25T03:48:08;95143.34;;;4.90;100.00
23229;BME280;11783;50.350;6.576;2023-03-25T03:50:39;95155.25;;;4.80;100.00
23229;BME280;11783;50.350;6.576;2023-03-25T03:55:44;95151.19;;;5.01;100.00
23229;BME280;11783;50.350;6.576;2023-03-25T03:58:20;95147.72;;;5.12;100.00
23229;BME280;11783;50.350;6.576;2023-03-25T04:00:51;95145.72;;;5.20;100.00
23229;BME280;11783;50.350;6.576;2023-03-25T04:03:24;95151.72;;;5.15;100.00
23229;BME280;11783;50.350;6.576;2023-03-25T04:06:04;95162.06;;;5.05;100.00
23229;BME280;11783;50.350;6.576;2023-03-25T04:08:39;95160.97;;;4.89;100.00
23229;BME280;11783;50.350;6.576;2023-03-25T04:11:15;95154.53;;;4.97;100.00
23229;BME280;11783;50.350;6.576;2023-03-25T04:13:45;95167.50;;;4.86;100.00
23229;BME280;11783;50.350;6.576;2023-03-25T04:16:13;95164.94;;;5.03;100.00
23229;BME280;11783;50.350;6.576;2023-03-25T04:18:38;95171.34;;;4.96;100.00
23229;BME280;11783;50.350;6.576;2023-03-25T04:21:04;95160.47;;;5.04;100.00
23229;BME280;11783;50.350;6.576;2023-03-25T04:23:29;95159.00;;;4.96;100.00
23229;BME280;11783;50.350;6.576;2023-03-25T04:25:56;95170.00;;;4.93;100.00
23229;BME280;11783;50.350;6.576;2023-03-25T04:28:22;95170.69;;;4.89;100.00
23229;BME280;11783;50.350;6.576;2023-03-25T04:30:48;95167.38;;;4.81;100.00
23229;BME280;11783;50.350;6.576;2023-03-25T04:33:14;95175.59;;;4.97;100.00
23229;BME280;11783;50.350;6.576;2023-03-25T04:35:39;95184.59;;;5.01;100.00
23229;BME280;11783;50.350;6.576;2023-03-25T04:38:06;95178.31;;;5.02;100.00
23229;BME280;11783;50.350;6.576;2023-03-25T04:40:32;95174.94;;;4.90;100.00
23229;BME280;11783;50.350;6.576;2023-03-25T04:42:58;95174.94;;;4.90;100.00
23229;BME280;11783;50.350;6.576;2023-03-25T04:45:24;95164.00;;;4.98;100.00
23229;BME280;11783;50.350;6.576;2023-03-25T04:47:50;95177.31;;;5.03;100.00
23229;BME280;11783;50.350;6.576;2023-03-25T04:50:28;95171.66;;;5.11;100.00
23229;BME280;11783;50.350;6.576;2023-03-25T04:52:54;95171.19;;;5.14;100.00
23229;BME280;11783;50.350;6.576;2023-03-25T04:55:25;95181.53;;;5.04;100.00
23229;BME280;11783;50.350;6.576;2023-03-25T04:57:51;95185.22;;;5.03;100.00
23229;BME280;11783;50.350;6.576;2023-03-25T05:00:20;95174.56;;;4.98;100.00
23229;BME280;11783;50.350;6.576;2023-03-25T05:02:48;95182.09;;;5.06;100.00
23229;BME280;11783;50.350;6.576;2023-03-25T05:05:19;95178.53;;;5.12;100.00
23229;BME280;11783;50.350;6.576;2023-03-25T05:07:48;95188.47;;;5.22;100.00
23229;BME280;11783;50.350;6.576;2023-03-25T05:10:20;95189.28;;;5.10;100.00
23229;BME280;11783;50.350;6.576;2023-03-25T05:12:46;95192.13;;;5.21;100.00
23229;BME280;11783;50.350;6.576;2023-03-25T05:15:12;95188.34;;;5.16;100.00
23229;BME280;11783;50.350;6.576;2023-03-25T05:17:38;95181.59;;;5.21;100.00
23229;BME280;11783;50.350;6.576;2023-03-25T05:20:05;95187.84;;;5.31;100.00
23229;BME280;11783;50.350;6.576;2023-03-25T05:22:32;95196.31;;;5.33;100.00
23229;BME280;11783;50.350;6.576;2023-03-25T05:24:58;95195.22;;;5.17;100.00
23229;BME280;11783;50.350;6.576;2023-03-25T05:27:27;95201.28;;;5.18;100.00
23229;BME280;11783;50.350;6.576;2023-03-25T05:29:55;95188.34;;;5.16;100.00
23229;BME280;11783;50.350;6.576;2023-03-25T05:32:23;95195.19;;;5.29;100.00
23229;BME280;11783;50.350;6.576;2023-03-25T05:34:50;95186.47;;;5.29;100.00
23229;BME280;11783;50.350;6.576;2023-03-25T05:37:15;95191.50;;;5.30;100.00
23229;BME280;11783;50.350;6.576;2023-03-25T05:39:40;95185.94;;;5.15;100.00
23229;BME280;11783;50.350;6.576;2023-03-25T05:42:06;95179.16;;;5.19;100.00
23229;BME280;11783;50.350;6.576;2023-03-25T05:44:31;95173.91;;;5.19;100.00
23229;BME280;11783;50.350;6.576;2023-03-25T05:46:57;95190.19;;;5.16;100.00
23229;BME280;11783;50.350;6.576;2023-03-25T05:49:26;95189.91;;;5.29;100.00
23229;BME280;11783;50.350;6.576;2023-03-25T05:51:52;95175.84;;;5.24;100.00
23229;BME280;11783;50.350;6.576;2023-03-25T05:54:18;95189.13;;;5.29;100.00
23229;BME280;11783;50.350;6.576;2023-03-25T05:56:43;95189.19;;;5.34;100.00
23229;BME280;11783;50.350;6.576;2023-03-25T05:59:09;95195.19;;;5.29;100.00
23229;BME280;11783;50.350;6.576;2023-03-25T06:01:34;95194.94;;;5.31;100.00
23229;BME280;11783;50.350;6.576;2023-03-25T06:04:04;95186.72;;;5.27;100.00
23229;BME280;11783;50.350;6.576;2023-03-25T06:06:30;95182.50;;;5.26;100.00
23229;BME280;11783;50.350;6.576;2023-03-25T06:08:58;95195.56;;;5.21;100.00
23229;BME280;11783;50.350;6.576;2023-03-25T06:11:23;95189.16;;;5.17;100.00
23229;BME280;11783;50.350;6.576;2023-03-25T06:13:48;95189.28;;;5.10;100.00
23229;BME280;11783;50.350;6.576;2023-03-25T06:16:24;95186.50;;;5.17;100.00
23229;BME280;11783;50.350;6.576;2023-03-25T06:18:53;95184.69;;;5.17;100.00
23229;BME280;11783;50.350;6.576;2023-03-25T06:21:24;95173.69;;;5.21;100.00
23229;BME280;11783;50.350;6.576;2023-03-25T06:23:51;95187.53;;;5.16;100.00
23229;BME280;11783;50.350;6.576;2023-03-25T06:26:19;95183.88;;;5.17;100.00
23229;BME280;11783;50.350;6.576;2023-03-25T06:28:45;95168.06;;;5.17;100.00
23229;BME280;11783;50.350;6.576;2023-03-25T06:31:15;95175.50;;;5.20;100.00
23229;BME280;11783;50.350;6.576;2023-03-25T06:33:45;95174.38;;;5.16;100.00
23229;BME280;11783;50.350;6.576;2023-03-25T06:36:13;95170.34;;;5.25;100.00
23229;BME280;11783;50.350;6.576;2023-03-25T06:38:39;95168.44;;;5.21;100.00
23229;BME280;11783;50.350;6.576;2023-03-25T06:41:05;95162.13;;;5.38;100.00
23229;BME280;11783;50.350;6.576;2023-03-25T06:43:31;95186.09;;;5.37;100.00
23229;BME280;11783;50.350;6.576;2023-03-25T06:45:57;95162.25;;;5.43;100.00
23229;BME280;11783;50.350;6.576;2023-03-25T06:48:22;95169.19;;;5.50;100.00
23229;BME280;11783;50.350;6.576;2023-03-25T06:50:48;95159.47;;;5.50;100.00
23229;BME280;11783;50.350;6.576;2023-03-25T06:53:13;95139.91;;;5.63;100.00
23229;BME280;11783;50.350;6.576;2023-03-25T06:55:39;95151.59;;;5.67;100.00
23229;BME280;11783;50.350;6.576;2023-03-25T06:58:05;95155.63;;;5.58;100.00
23229;BME280;11783;50.350;6.576;2023-03-25T07:00:30;95152.88;;;5.64;100.00
23229;BME280;11783;50.350;6.576;2023-03-25T07:02:56;95158.22;;;5.69;100.00
23229;BME280;11783;50.350;6.576;2023-03-25T07:05:23;95172.75;;;5.72;100.00
23229;BME280;11783;50.350;6.576;2023-03-25T07:07:48;95149.81;;;5.72;100.00
23229;BME280;11783;50.350;6.576;2023-03-25T07:10:14;95161.41;;;5.71;100.00
23229;BME280;11783;50.350;6.576;2023-03-25T07:12:39;95157.72;;;5.72;100.00
23229;BME280;11783;50.350;6.576;2023-03-25T07:15:05;95170.09;;;5.72;100.00
23229;BME280;11783;50.350;6.576;2023-03-25T07:17:31;95158.28;;;5.74;100.00
23229;BME280;11783;50.350;6.576;2023-03-25T07:19:56;95180.56;;;5.67;100.00
23229;BME280;11783;50.350;6.576;2023-03-25T07:22:22;95192.44;;;5.53;100.00
23229;BME280;11783;50.350;6.576;2023-03-25T07:24:47;95174.19;;;5.63;100.00
23229;BME280;11783;50.350;6.576;2023-03-25T07:27:14;95179.47;;;5.63;100.00
23229;BME280;11783;50.350;6.576;2023-03-25T07:29:40;95186.47;;;5.57;100.00
23229;BME280;11783;50.350;6.576;2023-03-25T07:32:06;95206.34;;;5.48;100.00
23229;BME280;11783;50.350;6.576;2023-03-25T07:34:31;95198.59;;;5.41;100.00
23229;BME280;11783;50.350;6.576;2023-03-25T07:36:57;95212.63;;;5.18;100.00
23229;BME280;11783;50.350;6.576;2023-03-25T07:39:22;95226.19;;;4.99;100.00
23229;BME280;11783;50.350;6.576;2023-03-25T07:41:50;95264.91;;;4.63;100.00
23229;BME280;11783;50.350;6.576;2023-03-25T07:44:15;95260.25;;;4.00;100.00
23229;BME280;11783;50.350;6.576;2023-03-25T07:46:44;95266.28;;;3.29;100.00
23229;BME280;11783;50.350;6.576;2023-03-25T07:49:10;95271.09;;;3.14;100.00
23229;BME280;11783;50.350;6.576;2023-03-25T07:51:35;95265.13;;;3.07;100.00
23229;BME280;11783;50.350;6.576;2023-03-25T07:54:00;95245.41;;;3.34;100.00
23229;BME280;11783;50.350;6.576;2023-03-25T07:56:26;95251.97;;;3.43;100.00
23229;BME280;11783;50.350;6.576;2023-03-25T07:58:51;95254.31;;;3.33;100.00
23229;BME280;11783;50.350;6.576;2023-03-25T08:01:16;95249.78;;;3.40;100.00
23229;BME280;11783;50.350;6.576;2023-03-25T08:03:42;95243.41;;;3.48;100.00
23229;BME280;11783;50.350;6.576;2023-03-25T08:06:08;95246.84;;;3.48;100.00
23229;BME280;11783;50.350;6.576;2023-03-25T08:08:33;95243.75;;;3.51;100.00
23229;BME280;11783;50.350;6.576;2023-03-25T08:10:59;95226.25;;;3.75;100.00
23229;BME280;11783;50.350;6.576;2023-03-25T08:13:26;95224.81;;;3.91;100.00
23229;BME280;11783;50.350;6.576;2023-03-25T08:15:52;95235.91;;;4.05;100.00
23229;BME280;11783;50.350;6.576;2023-03-25T08:18:18;95242.22;;;4.15;100.00
23229;BME280;11783;50.350;6.576;2023-03-25T08:20:43;95257.56;;;4.18;100.00
23229;BME280;11783;50.350;6.576;2023-03-25T08:23:09;95249.69;;;4.30;100.00
23229;BME280;11783;50.350;6.576;2023-03-25T08:25:39;95257.56;;;3.77;100.00
23229;BME280;11783;50.350;6.576;2023-03-25T08:28:06;95253.78;;;3.73;100.00
23229;BME280;11783;50.350;6.576;2023-03-25T08:30:33;95252.66;;;3.80;100.00
23229;BME280;11783;50.350;6.576;2023-03-25T08:33:07;95249.41;;;3.67;100.00
23229;BME280;11783;50.350;6.576;2023-03-25T08:35:34;95244.56;;;3.82;100.00
23229;BME280;11783;50.350;6.576;2023-03-25T08:38:00;95234.09;;;4.05;100.00
23229;BME280;11783;50.350;6.576;2023-03-25T08:40:32;95234.78;;;4.24;100.00
23229;BME280;11783;50.350;6.576;2023-03-25T08:42:58;95243.97;;;4.45;100.00
23229;BME280;11783;50.350;6.576;2023-03-25T08:45:23;95241.66;;;4.60;100.00
23229;BME280;11783;50.350;6.576;2023-03-25T08:47:49;95233.78;;;4.72;100.00
23229;BME280;11783;50.350;6.576;2023-03-25T08:50:14;95244.31;;;4.83;100.00
23229;BME280;11783;50.350;6.576;2023-03-25T08:52:40;95233.50;;;4.97;100.00
23229;BME280;11783;50.350;6.576;2023-03-25T08:55:06;95241.75;;;5.00;100.00
23229;BME280;11783;50.350;6.576;2023-03-25T08:57:33;95244.59;;;4.99;100.00
23229;BME280;11783;50.350;6.576;2023-03-25T08:59:59;95253.84;;;5.25;100.00
23229;BME280;11783;50.350;6.576;2023-03-25T09:02:24;95256.00;;;5.28;100.00
23229;BME280;11783;50.350;6.576;2023-03-25T09:04:50;95244.19;;;5.30;100.00
23229;BME280;11783;50.350;6.576;2023-03-25T09:07:15;95244.97;;;5.42;100.00
23229;BME280;11783;50.350;6.576;2023-03-25T09:09:44;95245.88;;;5.48;100.00
23229;BME280;11783;50.350;6.576;2023-03-25T09:12:09;95250.19;;;5.54;100.00
23229;BME280;11783;50.350;6.576;2023-03-25T09:14:35;95242.44;;;5.47;100.00
23229;BME280;11783;50.350;6.576;2023-03-25T09:17:00;95244.56;;;5.62;100.00
23229;BME280;11783;50.350;6.576;2023-03-25T09:19:26;95237.06;;;5.71;100.00
23229;BME280;11783;50.350;6.576;2023-03-25T09:21:51;95238.78;;;5.94;100.00
23229;BME280;11783;50.350;6.576;2023-03-25T09:24:17;95234.59;;;6.10;100.00
23229;BME280;11783;50.350;6.576;2023-03-25T09:26:42;95264.91;;;6.24;100.00
23229;BME280;11783;50.350;6.576;2023-03-25T09:29:07;95250.84;;;6.35;100.00
23229;BME280;11783;50.350;6.576;2023-03-25T09:31:33;95262.59;;;6.44;100.00
23229;BME280;11783;50.350;6.576;2023-03-25T09:33:58;95260.25;;;6.48;100.00
23229;BME280;11783;50.350;6.576;2023-03-25T09:36:23;95260.69;;;6.40;100.00
23229;BME280;11783;50.350;6.576;2023-03-25T09:38:49;95253.88;;;6.44;100.00
23229;BME280;11783;50.350;6.576;2023-03-25T09:41:40;95253.88;;;6.60;100.00
23229;BME280;11783;50.350;6.576;2023-03-25T09:44:27;95273.75;;;6.68;100.00
23229;BME280;11783;50.350;6.576;2023-03-25T09:46:55;95286.09;;;6.79;100.00
23229;BME280;11783;50.350;6.576;2023-03-25T09:49:35;95263.59;;;6.77;100.00
23229;BME280;11783;50.350;6.576;2023-03-25T09:52:02;95250.31;;;6.88;100.00
23229;BME280;11783;50.350;6.576;2023-03-25T09:54:31;95257.50;;;6.93;100.00
23229;BME280;11783;50.350;6.576;2023-03-25T09:57:03;95278.94;;;6.96;100.00
23229;BME280;11783;50.350;6.576;2023-03-25T09:59:44;95262.47;;;6.89;100.00
23229;BME280;11783;50.350;6.576;2023-03-25T10:10:37;95264.16;;;7.17;100.00
23229;BME280;11783;50.350;6.576;2023-03-25T10:21:39;95275.09;;;7.70;92.31
23229;BME280;11783;50.350;6.576;2023-03-25T10:24:17;95277.69;;;7.65;91.39
23229;BME280;11783;50.350;6.576;2023-03-25T10:27:04;95276.41;;;7.45;92.07
23229;BME280;11783;50.350;6.576;2023-03-25T10:29:35;95284.25;;;7.40;91.53
23229;BME280;11783;50.350;6.576;2023-03-25T10:32:06;95297.63;;;7.50;93.56
23229;BME280;11783;50.350;6.576;2023-03-25T10:34:44;95281.13;;;7.65;98.87
23229;BME280;11783;50.350;6.576;2023-03-25T10:37:18;95280.34;;;7.92;100.00
23229;BME280;11783;50.350;6.576;2023-03-25T10:39:48;95288.19;;;8.08;100.00
23229;BME280;11783;50.350;6.576;2023-03-25T10:42:37;95285.84;;;7.85;93.04
23229;BME280;11783;50.350;6.576;2023-03-25T10:45:13;95280.66;;;7.95;97.53
23229;BME280;11783;50.350;6.576;2023-03-25T10:47:39;95278.53;;;8.19;94.96
23229;BME280;11783;50.350;6.576;2023-03-25T10:50:13;95302.06;;;8.42;98.19
23229;BME280;11783;50.350;6.576;2023-03-25T10:52:40;95295.03;;;8.58;100.00
23229;BME280;11783;50.350;6.576;2023-03-25T10:55:20;95297.19;;;8.61;92.45
23229;BME280;11783;50.350;6.576;2023-03-25T10:57:47;95293.28;;;8.37;90.73
23229;BME280;11783;50.350;6.576;2023-03-25T11:00:16;95306.75;;;8.35;93.83
23229;BME280;11783;50.350;6.576;2023-03-25T11:02:47;95323.50;;;8.19;94.39
23229;BME280;11783;50.350;6.576;2023-03-25T11:05:16;95328.66;;;8.04;100.00
23229;BME280;11783;50.350;6.576;2023-03-25T11:07:47;95353.13;;;7.50;100.00
23229;BME280;11783;50.350;6.576;2023-03-25T11:10:18;95372.38;;;7.46;100.00
23229;BME280;11783;50.350;6.576;2023-03-25T11:12:44;95360.50;;;7.26;100.00
23229;BME280;11783;50.350;6.576;2023-03-25T11:15:14;95362.44;;;6.81;100.00
23229;BME280;11783;50.350;6.576;2023-03-25T11:21:06;95324.28;;;6.88;100.00
23229;BME280;11783;50.350;6.576;2023-03-25T11:26:21;95317.63;;;7.24;100.00
23229;BME280;11783;50.350;6.576;2023-03-25T11:29:11;95307.88;;;7.47;100.00
23229;BME280;11783;50.350;6.576;2023-03-25T11:31:37;95343.31;;;7.68;100.00
23229;BME280;11783;50.350;6.576;2023-03-25T11:36:38;95339.25;;;7.82;100.00
23229;BME280;11783;50.350;6.576;2023-03-25T11:39:32;95350.25;;;7.96;100.00
23229;BME280;11783;50.350;6.576;2023-03-25T11:42:00;;;;8.04;
23229;BME280;11783;50.350;6.576;2023-03-25T11:44:32;95313.03;;;8.02;100.00
23229;BME280;11783;50.350;6.576;2023-03-25T11:47:02;95328.59;;;8.26;100.00
23229;BME280;11783;50.350;6.576;2023-03-25T11:49:29;95322.75;;;8.24;100.00
23229;BME280;11783;50.350;6.576;2023-03-25T11:52:03;95300.31;;;8.31;100.00
23229;BME280;11783;50.350;6.576;2023-03-25T11:54:29;95333.81;;;8.42;98.07
23229;BME280;11783;50.350;6.576;2023-03-25T11:56:57;95318.91;;;8.36;99.83
23229;BME280;11783;50.350;6.576;2023-03-25T12:01:49;95332.41;;;8.35;100.00
23229;BME280;11783;50.350;6.576;2023-03-25T12:04:21;95343.38;;;8.43;94.36
23229;BME280;11783;50.350;6.576;2023-03-25T12:09:19;95361.13;;;8.48;92.80
23229;BME280;11783;50.350;6.576;2023-03-25T12:11:59;95324.22;;;8.36;92.84
23229;BME280;11783;50.350;6.576;2023-03-25T12:19:43;95333.91;;;8.85;92.21
23229;BME280;11783;50.350;6.576;2023-03-25T12:22:41;95312.53;;;8.96;89.28
23229;BME280;11783;50.350;6.576;2023-03-25T12:25:24;95323.25;;;9.12;85.70
23229;BME280;11783;50.350;6.576;2023-03-25T12:33:23;95309.44;;;9.62;81.01
23229;BME280;11783;50.350;6.576;2023-03-25T12:36:02;95311.22;;;9.46;82.83
23229;BME280;11783;50.350;6.576;2023-03-25T12:38:38;95312.88;;;9.52;81.20
23229;BME280;11783;50.350;6.576;2023-03-25T12:43:56;95290.41;;;9.75;79.34
23229;BME280;11783;50.350;6.576;2023-03-25T12:58:17;95308.38;;;10.71;77.22
23229;BME280;11783;50.350;6.576;2023-03-25T13:09:01;95296.69;;;10.52;70.66
23229;BME280;11783;50.350;6.576;2023-03-25T13:11:42;95300.84;;;10.17;73.06
23229;BME280;11783;50.350;6.576;2023-03-25T13:14:26;95289.25;;;10.54;70.60
23229;BME280;11783;50.350;6.576;2023-03-25T13:16:57;95292.19;;;10.98;70.95
23229;BME280;11783;50.350;6.576;2023-03-25T13:19:26;95307.25;;;11.33;71.73
23229;BME280;11783;50.350;6.576;2023-03-25T13:21:59;95288.31;;;11.50;69.64
23229;BME280;11783;50.350;6.576;2023-03-25T13:24:34;95293.13;;;11.43;67.30
23229;BME280;11783;50.350;6.576;2023-03-25T13:27:03;95314.69;;;11.41;66.01
23229;BME280;11783;50.350;6.576;2023-03-25T13:29:40;95284.41;;;11.12;64.40
23229;BME280;11783;50.350;6.576;2023-03-25T13:32:14;95250.38;;;11.24;67.16
23229;BME280;11783;50.350;6.576;2023-03-25T13:34:53;95287.63;;;11.04;65.30
23229;BME280;11783;50.350;6.576;2023-03-25T13:37:25;95267.19;;;10.99;63.07
23229;BME280;11783;50.350;6.576;2023-03-25T13:44:58;95345.53;;;9.63;74.00
23229;BME280;11783;50.350;6.576;2023-03-25T13:47:30;95308.72;;;9.77;81.39
23229;BME280;11783;50.350;6.576;2023-03-25T13:50:04;95293.91;;;10.01;84.07
23229;BME280;11783;50.350;6.576;2023-03-25T13:52:38;95298.25;;;10.22;83.11
23229;BME280;11783;50.350;6.576;2023-03-25T13:55:19;95287.66;;;10.43;74.05
23229;BME280;11783;50.350;6.576;2023-03-25T14:11:27;95271.16;;;11.07;69.86
23229;BME280;11783;50.350;6.576;2023-03-25T14:13:59;95275.13;;;11.09;65.22
23229;BME280;11783;50.350;6.576;2023-03-25T14:16:49;95296.97;;;10.86;66.50
23229;BME280;11783;50.350;6.576;2023-03-25T14:19:19;95273.56;;;10.73;64.09
23229;BME280;11783;50.350;6.576;2023-03-25T14:21:50;95275.19;;;10.64;69.76
23229;BME280;11783;50.350;6.576;2023-03-25T14:24:27;95337.59;;;10.51;70.42
23229;BME280;11783;50.350;6.576;2023-03-25T14:27:04;95295.50;;;10.02;75.15
23229;BME280;11783;50.350;6.576;2023-03-25T14:29:43;95305.06;;;10.03;77.00
23229;BME280;11783;50.350;6.576;2023-03-25T14:34:41;95297.31;;;9.76;77.48
23229;BME280;11783;50.350;6.576;2023-03-25T14:44:34;95299.25;;;10.06;75.34
23229;BME280;11783;50.350;6.576;2023-03-25T14:52:17;95280.94;;;10.05;72.35
23229;BME280;11783;50.350;6.576;2023-03-25T14:54:50;95295.00;;;10.15;70.51
23229;BME280;11783;50.350;6.576;2023-03-25T14:57:28;95292.06;;;10.01;69.22
23229;BME280;11783;50.350;6.576;2023-03-25T15:00:00;95285.41;;;9.99;69.55
23229;BME280;11783;50.350;6.576;2023-03-25T15:02:34;95279.88;;;10.06;70.33
23229;BME280;11783;50.350;6.576;2023-03-25T15:05:22;95275.09;;;10.08;67.97
23229;BME280;11783;50.350;6.576;2023-03-25T15:12:58;95283.41;;;10.37;68.65
23229;BME280;11783;50.350;6.576;2023-03-25T15:23:45;95300.38;;;10.25;67.81
23229;BME280;11783;50.350;6.576;2023-03-25T15:32:12;95335.22;;;10.44;79.39
23229;BME280;11783;50.350;6.576;2023-03-25T15:42:58;95317.66;;;10.28;82.06
23229;BME280;11783;50.350;6.576;2023-03-25T15:45:56;95311.81;;;10.31;84.04
23229;BME280;11783;50.350;6.576;2023-03-25T15:48:41;95309.72;;;10.43;83.82
23229;BME280;11783;50.350;6.576;2023-03-25T15:51:38;95310.22;;;10.25;84.16
23229;BME280;11783;50.350;6.576;2023-03-25T15:56:36;95315.72;;;10.18;85.61
23229;BME280;11783;50.350;6.576;2023-03-25T16:01:52;95307.50;;;10.15;83.32